Terminal Aerodrome Forecast
Issued by NWS Cleveland, OH

Home | Current Version | Previous Version | Graphics & Text | Print | Product List | Glossary Off
Versions: 1 2 3 4 5 6 7 8 9 10 11 12 13 14 15 16

000
FTUS41 KCLE 220535
TAFYNG
TAF
KYNG 220535Z 2206/2306 18005KT 5SM -RA BR VCTS OVC045CB
     FM221200 22005KT P6SM OVC030
     FM221600 26008KT P6SM BKN040
     FM222100 27009KT P6SM VCTS BKN035CB
     FM230300 33005KT P6SM BKN015=

USA.gov is the U.S. government's official web portal to all federal, state and local government web resources and services.